Terminal Aerodrome Forecast
Issued by NWS Upton, NY

Current Version | Previous Version | Text Only | Print | Product List | Glossary On
Versions: 1 2 3 4 5 6 7 8 9 10 11 12 13 14 15 16 17 18 19 20 21 22 23 24 25 26 27 28 29 30 31 32 33 34 35 36
000
FTUS41 KOKX 010045 AAA
TAFLGA
TAF AMD
KLGA 010045Z 0101/0124 15013KT P6SM SCT015 BKN050 BKN120
      TEMPO 0101/0103 -SHRA
     FM010600 14008KT 6SM BR VCSH FEW006 BKN015 BKN040
      TEMPO 0108/0112 4SM SHRA
     FM011200 19006KT 6SM -SHRA BR BKN012 BKN025
     FM011500 21010KT P6SM SCT025 BKN040
     FM011800 22012G22KT P6SM SCT050 BKN150=

USA.gov is the U.S. government's official web portal to all federal, state and local government web resources and services.